默认 日期 大小 文件数 浏览量 最新下载 xml
3 27磁力链接相关资源由用户搜索指令自动获取,结果来源于网络,本站不存储任何资料,亦不承担任何责任,请于24小时内删除,搜索到3763个磁力,用时38ms。
    {"crack": {"run_36d20.exe": 374706}, "WWW.YIFY-TORRENTS.COM.jpg": 102068, "Torrent downloaded from Thepiratebay.sx.txt": 80, "Internet Download Manager IDM 6 27 Build 3 + Patch.exe": 10405994}
创建时间: 2019-01-18 23:19:19 大小:10.38 MB 文件数量:4 热度:5 最近下载:2022-11-12 09:45:16
    {"crack": {"run_6743f.exe": 116410}, "ReadMe.pdf": 11092, "WWW.SUMOTORRENT.SZ.jpg": 102416, "Torrent downloaded from 1337x.org.txt": 36, "BlueStacks App Player tivated Offline Rooted + MOD v 27.3.2.exe": 8742240}
创建时间: 2019-01-18 22:32:02 大小:8.56 MB 文件数量:5 热度:6 最近下载:2025-01-14 04:33:09
    {"Readme.pdf": 9688, "Torrent downloaded from TorReviver torrents at BTS.to.txt": 28, "BlueStacks App Player tivated Offline Rooted + MOD v 27.3.2.exe": 8716964, "BlueStacks App Player tivated Offline Rooted + MOD v 27.3.2.nfo": 696}
创建时间: 2019-01-18 18:06:57 大小:8.32 MB 文件数量:4 热度:6 最近下载:2025-01-10 16:59:01
    {"ReadMe.txt": 1364, "Torrent downloaded from AhaShare.com.txt": 56, "Adobe Photoshop Lightroom Classic CC 2018 21.7.3.27 (x86x64).exe": 5768582, "Adobe Photoshop Lightroom Classic CC 2018 21.7.3.27 (x86x64).nfo": 948}
创建时间: 2019-01-18 17:29:17 大小:5.5 MB 文件数量:4 热度:7 最近下载:2025-07-19 06:31:01
    ... , "Im A Nymphomaniac Like Mom 3 S1.mp4": 300836823, "Im A ... Nymphomaniac Like Mom 3 S2.mp4": 280441702, "Im A ... Nymphomaniac Like Mom 3 S3.mp4": 275462751, "Im A ... Nymphomaniac Like Mom 3 S4.mp4": 319247008, "ty997.com ...
创建时间: 2019-01-18 15:47:23 大小:1.17 GB 文件数量:33 热度:9 最近下载:2025-09-20 12:20:05
    {"autorun.url": 380, "WWW.SUMOTORRENT.SZ.jpg": 104972, "State Of Decay 3 (2018) 1.3188.27.3 (v2).exe": 6183232, "State Of Decay 3 (2018) 1.3188.27.3 (v2).nfo": 668}
创建时间: 2019-01-18 14:26:27 大小:6 MB 文件数量:4 热度:4 最近下载:2022-11-12 12:59:11
    {"Crack": {"serial.txt": 133, "DataRecovery.dat": 1156, "Instructions.txt": 512}, "Instructions.txt": 512, "AnyDataRecoveryPortable": {"App": {"image": {"Menu": {"menu_bg.png": 5812, "menu_help.png": 3031, "menu_home.png": 3715, "menu_about.png": 918, " ...
创建时间: 2019-01-18 12:42:47 大小:11.25 MB 文件数量:146 热度:10 最近下载:2025-06-16 15:15:01
    {"README.txt": 1153, "Sandboxie.v5.27.3.exe": 6534764}
创建时间: 2019-01-18 06:01:12 大小:6.23 MB 文件数量:2 热度:5 最近下载:2025-04-26 02:29:01
    ... .27 Build 3 Registered (32bit + 64bit Patch).exe": 56215640, "IDM 6.27 Build 3 ...
创建时间: 2019-01-18 03:37:20 大小:53.9 MB 文件数量:6 热度:6 最近下载:2025-03-03 15:01:56
    {"ReadMe.txt": 1364, "Torrent downloaded from AhaShare.com.txt": 56, "Adobe Photoshop Lightroom Classic CC 2018 21.7.3.27 (x86x64).exe": 5768584, "Adobe Photoshop Lightroom Classic CC 2018 21.7.3.27 (x86x64).nfo": 948}
创建时间: 2019-01-18 02:08:59 大小:5.5 MB 文件数量:4 热度:7 最近下载:2025-06-16 16:45:02
    {"LegalPorno - Hot sluts Francys Belle and Eveline Dellai double anal with 3 cocks SZ1789.mp4": 900455284}
创建时间: 2019-01-18 01:52:04 大小:858.74 MB 文件数量:1 热度:11 最近下载:2025-02-14 01:48:03
    {"Readme.url": 892, "www.FENOPY.se.jpg": 118728, "Torrent downloaded from AhaShare.com.txt": 40, "Euro Truck Simulator 3 v1.27.1.7s (Inclu ALL DLC).exe": 28648404}
创建时间: 2019-01-18 00:30:54 大小:27.44 MB 文件数量:4 热度:5 最近下载:2024-12-23 04:41:01
    {"crack": {"run_6743f.exe": 116410}, "ReadMe.pdf": 11092, "WWW.SUMOTORRENT.SZ.jpg": 102416, "Torrent downloaded from 1337x.org.txt": 36, "BlueStacks App Player tivated Offline Rooted + MOD v 27.3.2.exe": 8742242}
创建时间: 2019-01-18 00:02:28 大小:8.56 MB 文件数量:5 热度:5 最近下载:2022-11-12 12:55:51
    {"ReadMe.txt": 1364, "Torrent downloaded from AhaShare.com.txt": 56, "Adobe Photoshop Lightroom Classic CC 2018 21.7.3.27 (x86x64).exe": 5768580, "Adobe Photoshop Lightroom Classic CC 2018 21.7.3.27 (x86x64).nfo": 948}
创建时间: 2019-01-17 22:07:27 大小:5.5 MB 文件数量:4 热度:6 最近下载:2025-07-26 22:18:01
    {"ReadMe.txt": 1364, "Torrent downloaded from AhaShare.com.txt": 56, "Adobe Photoshop Lightroom Classic CC 2018 21.7.3.27 (x86x64).exe": 5768582, "Adobe Photoshop Lightroom Classic CC 2018 21.7.3.27 (x86x64).nfo": 948}
创建时间: 2019-01-17 19:52:24 大小:5.5 MB 文件数量:4 热度:6 最近下载:2025-06-29 05:04:02
    {"RARBG.com.txt": 34, "kha.15.04.27.lacey.channing.solo.3.mp4": 360126303, "kha.15.04.27.lacey.channing.solo.3.nfo": 5191}
创建时间: 2019-01-16 18:31:42 大小:343.45 MB 文件数量:3 热度:8 最近下载:2025-06-06 01:59:03
    {"speedplus.us.url": 227, "[email protected]": 0, "[email protected]": 40, "passwing_speedplus.us.txt": 49, "passwing@�˱K�R�H.txt": 0, "passwing__by_FDZone.ORG.txt": 22, "passwing__by_FDZone.ORG.url": 227, "n0418_emiri_nagayama_tg_n.wmv": ...
创建时间: 2019-01-16 10:47:21 大小:2.84 GB 文件数量:13 热度:8 最近下载:2025-06-30 05:04:03
    {"Readme!.url": 804, "www.limetorrents.com.jpg": 73400, "TeraByte Drive Image Backup & Restore Suite 3.27 + Key.exe": 4280012, "TeraByte Drive Image Backup & Restore Suite 3.27 + Key.nfo": 1000}
创建时间: 2019-01-16 05:34:32 大小:4.15 MB 文件数量:4 热度:8 最近下载:2025-06-18 15:36:01
    ... "Links_to_ALL_Torrents.html": 87931, "2013-07-27 San Francisco CA": {"1-04 ... music.mp3": 4146006, "2013.07.27 - San Francisco Full.m4b": ... ": 298948826, "2of3 2013-07-27 San Francisco CA.mp4": 287329047 ... "Info 2013-07-27 Video+mp3 LIVE 3-hr Broadcast.txt": 6135 ...
创建时间: 2019-01-16 05:08:13 大小:1.2 GB 文件数量:28 热度:6 最近下载:2025-02-09 20:57:04
    {"poster.jpg": 33040, "screens.jpg": 0, "RARBG.com.txt": 33, "tle.16.11.27.emily.j.scarecrow.3.2.mp4": 532664408}
创建时间: 2019-01-16 05:03:37 大小:508.02 MB 文件数量:4 热度:7 最近下载:2025-03-30 06:20:02